createdAt,value
2018-10-19T00:01:09.922Z,99.90
2018-10-19T00:06:32.031Z,99.90
2018-10-19T00:11:53.903Z,99.90
2018-10-19T00:17:16.034Z,99.90
2018-10-19T00:22:37.854Z,99.90
2018-10-19T00:28:00.119Z,99.90
2018-10-19T00:33:22.118Z,99.90
2018-10-19T00:38:44.416Z,99.90
2018-10-19T00:44:07.050Z,99.90
2018-10-19T00:49:29.154Z,99.90
2018-10-19T00:54:51.343Z,99.90
2018-10-19T01:00:13.066Z,99.90
2018-10-19T01:05:35.255Z,99.90
2018-10-19T01:10:57.152Z,99.90
2018-10-19T01:16:19.603Z,99.90
2018-10-19T01:21:41.873Z,99.90
2018-10-19T01:27:03.840Z,99.90
2018-10-19T01:32:26.023Z,99.90
2018-10-19T01:37:48.031Z,99.90
2018-10-19T01:43:10.269Z,99.90
2018-10-19T01:48:32.275Z,99.90
2018-10-19T01:53:54.490Z,99.90
2018-10-19T01:59:16.490Z,99.90
2018-10-19T02:04:38.794Z,99.90
2018-10-19T02:10:00.665Z,99.90
2018-10-19T02:15:22.880Z,99.90
2018-10-19T02:20:46.083Z,99.90
2018-10-19T02:26:07.967Z,99.90
2018-10-19T02:31:30.167Z,99.90
2018-10-19T02:36:51.987Z,99.90
2018-10-19T02:42:14.172Z,99.90
2018-10-19T02:47:36.113Z,99.90
2018-10-19T02:52:58.338Z,99.90
2018-10-19T02:58:20.200Z,99.90
2018-10-19T03:03:42.314Z,99.90
2018-10-19T03:09:04.650Z,99.90
2018-10-19T03:14:27.079Z,99.90
2018-10-19T03:19:49.286Z,99.90
2018-10-19T03:25:11.875Z,99.90
2018-10-19T03:30:33.703Z,99.90
2018-10-19T03:35:55.916Z,99.90
2018-10-19T03:41:17.808Z,99.90
2018-10-19T03:46:39.964Z,99.90
2018-10-19T03:52:01.787Z,99.90
2018-10-19T03:57:24.029Z,99.90
2018-10-19T04:02:45.994Z,99.90
2018-10-19T04:08:08.163Z,99.90
2018-10-19T04:13:30.051Z,99.90
2018-10-19T04:18:52.215Z,99.90
2018-10-19T04:24:14.089Z,99.90
2018-10-19T04:29:36.222Z,99.90
2018-10-19T04:34:58.175Z,99.90
2018-10-19T04:40:22.958Z,99.90
2018-10-19T04:45:45.464Z,99.90
2018-10-19T04:51:07.796Z,99.90
2018-10-19T04:56:29.990Z,99.90
2018-10-19T05:01:52.754Z,99.90
2018-10-19T05:07:14.727Z,99.90
2018-10-19T05:12:37.151Z,99.90
2018-10-19T05:17:59.117Z,99.90
2018-10-19T05:23:21.371Z,99.90
2018-10-19T05:28:43.136Z,99.90
2018-10-19T05:34:05.385Z,99.90
2018-10-19T05:39:27.394Z,99.90
2018-10-19T05:44:49.712Z,99.90
2018-10-19T05:50:12.820Z,99.90
2018-10-19T05:55:34.566Z,99.90
2018-10-19T06:00:56.754Z,99.90
2018-10-19T06:06:18.631Z,99.90
2018-10-19T06:11:41.670Z,99.90
2018-10-19T06:17:04.148Z,99.90
2018-10-19T06:22:26.615Z,99.90
2018-10-19T06:27:48.487Z,99.90
2018-10-19T06:33:10.762Z,99.90
2018-10-19T06:38:32.783Z,99.90
2018-10-19T06:43:54.887Z,99.90
2018-10-19T06:49:17.190Z,99.90
2018-10-19T06:54:39.290Z,99.90
2018-10-19T07:00:01.622Z,99.90
2018-10-19T07:05:23.723Z,99.90
2018-10-19T07:10:47.213Z,99.90
2018-10-19T07:16:09.492Z,99.90
2018-10-19T07:21:31.646Z,99.90
2018-10-19T07:26:53.602Z,99.90
2018-10-19T07:32:15.919Z,99.90
2018-10-19T07:37:37.731Z,99.90
2018-10-19T07:42:59.929Z,99.90
2018-10-19T07:48:21.848Z,99.90
2018-10-19T07:53:43.973Z,99.90
2018-10-19T07:59:06.096Z,99.90
2018-10-19T08:04:28.155Z,99.90
2018-10-19T08:09:49.909Z,99.90
2018-10-19T08:15:12.138Z,99.90
2018-10-19T08:20:35.383Z,99.90
2018-10-19T08:25:57.589Z,99.90
2018-10-19T08:31:19.553Z,99.90
2018-10-19T08:36:41.738Z,99.90
2018-10-19T08:42:03.631Z,99.90
2018-10-19T08:47:25.926Z,99.90
2018-10-19T08:52:47.862Z,99.90
2018-10-19T08:58:10.008Z,99.70
2018-10-19T09:03:32.023Z,99.50
2018-10-19T09:08:54.281Z,99.20
2018-10-19T09:14:26.407Z,99.30
2018-10-19T09:19:49.138Z,99.10
2018-10-19T09:25:11.383Z,98.60
2018-10-19T09:30:33.410Z,98.90
2018-10-19T09:35:55.649Z,98.10
2018-10-19T09:41:18.021Z,97.80
2018-10-19T09:46:40.761Z,97.20
2018-10-19T09:52:03.107Z,97.20
2018-10-19T09:57:25.250Z,96.70
2018-10-19T10:02:47.759Z,96.60
2018-10-19T10:08:09.928Z,95.10
2018-10-19T10:13:32.281Z,95.30
2018-10-19T10:18:54.555Z,95.00
2018-10-19T10:24:16.694Z,95.00
2018-10-19T10:29:38.884Z,94.40
2018-10-19T10:35:00.878Z,93.80
2018-10-19T10:40:23.102Z,92.60
2018-10-19T10:45:44.963Z,92.60
2018-10-19T10:51:07.182Z,92.80
2018-10-19T10:56:29.903Z,92.60
2018-10-19T11:01:53.342Z,92.10
2018-10-19T11:07:15.664Z,92.00
2018-10-19T11:12:37.991Z,93.60
2018-10-19T11:18:00.029Z,92.40
2018-10-19T11:23:22.192Z,93.00
2018-10-19T11:28:44.818Z,91.10
2018-10-19T11:34:07.932Z,91.60
2018-10-19T11:39:29.658Z,91.10
2018-10-19T11:44:51.934Z,91.00
2018-10-19T11:50:13.766Z,90.80
2018-10-19T11:55:36.269Z,90.30
2018-10-19T12:00:58.663Z,90.10
2018-10-19T12:06:20.608Z,90.70
2018-10-19T12:11:42.354Z,90.50
2018-10-19T12:17:04.652Z,90.50
2018-10-19T12:22:26.447Z,90.20
2018-10-19T12:27:49.098Z,90.10
2018-10-19T12:33:12.099Z,88.40
2018-10-19T12:38:34.324Z,89.10
2018-10-19T12:43:56.739Z,89.20
2018-10-19T12:49:22.578Z,90.10
2018-10-19T12:54:45.230Z,88.60
2018-10-19T13:00:07.961Z,89.40
2018-10-19T13:05:30.272Z,88.80
2018-10-19T13:10:52.682Z,88.60
2018-10-19T13:16:15.568Z,88.70
2018-10-19T13:21:37.920Z,85.90
2018-10-19T13:27:00.310Z,87.20
2018-10-19T13:32:22.581Z,86.00
2018-10-19T13:37:44.874Z,88.40
2018-10-19T13:43:07.219Z,87.80
2018-10-19T13:48:29.530Z,87.30
2018-10-19T13:53:51.610Z,87.70
2018-10-19T13:59:13.423Z,87.00
2018-10-19T14:04:35.809Z,86.50
2018-10-19T14:10:00.545Z,85.40
2018-10-19T14:15:22.680Z,86.00
2018-10-19T14:20:44.418Z,86.60
2018-10-19T14:26:06.678Z,87.30
2018-10-19T14:31:28.457Z,88.20
2018-10-19T14:36:50.795Z,85.10
2018-10-19T14:42:14.213Z,85.00
2018-10-19T14:47:36.861Z,87.00
2018-10-19T14:52:59.074Z,87.00
2018-10-19T14:58:21.002Z,87.40
2018-10-19T15:03:43.225Z,86.20
2018-10-19T15:09:06.028Z,86.30
2018-10-19T15:14:28.967Z,87.50
2018-10-19T15:19:50.574Z,85.70
2018-10-19T15:25:13.149Z,86.50
2018-10-19T15:30:35.551Z,87.30
2018-10-19T15:35:57.847Z,88.70
2018-10-19T15:41:19.944Z,87.50
2018-10-19T15:46:41.908Z,88.30
2018-10-19T15:52:05.204Z,88.60
2018-10-19T15:57:27.098Z,90.00
2018-10-19T16:02:49.412Z,89.40
2018-10-19T16:08:11.605Z,89.10
2018-10-19T16:13:34.078Z,89.00
2018-10-19T16:18:56.276Z,89.70
2018-10-19T16:24:18.098Z,89.40
2018-10-19T16:29:40.199Z,90.10
2018-10-19T16:35:02.100Z,90.40
2018-10-19T16:40:24.354Z,90.80
2018-10-19T16:45:46.222Z,91.00
2018-10-19T16:51:08.794Z,91.10
2018-10-19T16:56:32.022Z,91.30
2018-10-19T17:01:54.153Z,91.20
2018-10-19T17:07:16.322Z,91.50
2018-10-19T17:12:42.721Z,91.80
2018-10-19T17:18:04.991Z,92.10
2018-10-19T17:23:30.670Z,92.00
2018-10-19T17:28:56.529Z,92.20
2018-10-19T17:34:22.104Z,92.50
2018-10-19T17:39:47.887Z,92.70
2018-10-19T17:45:11.255Z,92.70
2018-10-19T17:50:33.335Z,93.10
2018-10-19T17:55:55.299Z,93.10
2018-10-19T18:01:21.231Z,93.30
2018-10-19T18:06:43.280Z,93.30
2018-10-19T18:12:05.202Z,93.40
2018-10-19T18:17:27.370Z,93.60
2018-10-19T18:22:49.345Z,93.50
2018-10-19T18:28:11.844Z,93.60
2018-10-19T18:33:33.559Z,93.90
2018-10-19T18:38:55.720Z,93.80
2018-10-19T18:44:17.615Z,93.80
2018-10-19T18:49:40.586Z,94.00
2018-10-19T18:55:02.797Z,94.30
2018-10-19T19:00:27.964Z,94.40
2018-10-19T19:05:55.029Z,94.60
2018-10-19T19:11:17.454Z,94.90
2018-10-19T19:16:39.438Z,95.00
2018-10-19T19:22:02.396Z,95.10
2018-10-19T19:27:24.813Z,95.20
2018-10-19T19:32:52.715Z,95.10
2018-10-19T19:38:15.421Z,95.10
2018-10-19T19:43:37.367Z,95.20
2018-10-19T19:49:04.160Z,95.40
2018-10-19T19:54:25.979Z,95.40
2018-10-19T19:59:48.073Z,95.40
2018-10-19T20:05:10.865Z,95.40
2018-10-19T20:10:32.986Z,94.90
2018-10-19T20:15:55.222Z,94.80
2018-10-19T20:21:17.894Z,95.20
2018-10-19T20:26:41.433Z,95.40
2018-10-19T20:32:06.445Z,95.20
2018-10-19T20:37:29.831Z,95.30
2018-10-19T20:42:51.878Z,96.20
2018-10-19T20:48:14.025Z,97.00
2018-10-19T20:53:36.326Z,97.30
2018-10-19T20:58:58.587Z,97.70
2018-10-19T21:04:20.347Z,98.20
2018-10-19T21:09:42.382Z,98.50
2018-10-19T21:15:04.366Z,98.50
2018-10-19T21:20:26.528Z,98.70
2018-10-19T21:25:48.391Z,98.90
2018-10-19T21:31:10.619Z,98.90
2018-10-19T21:36:32.438Z,99.20
2018-10-19T21:41:55.963Z,99.30
2018-10-19T21:47:17.932Z,99.40
2018-10-19T21:52:40.262Z,99.30
2018-10-19T21:58:02.443Z,99.30
2018-10-19T22:03:24.418Z,99.30
2018-10-19T22:08:46.601Z,99.30
2018-10-19T22:14:09.101Z,99.60
2018-10-19T22:19:31.246Z,99.90
2018-10-19T22:24:53.213Z,99.90
2018-10-19T22:30:15.624Z,99.90
2018-10-19T22:35:37.902Z,99.80
2018-10-19T22:40:59.892Z,99.90
2018-10-19T22:46:22.154Z,99.90
2018-10-19T22:51:44.106Z,99.90
2018-10-19T22:57:07.020Z,99.80
2018-10-19T23:02:29.229Z,99.70
2018-10-19T23:07:51.150Z,99.60
2018-10-19T23:13:13.478Z,99.60
2018-10-19T23:18:35.671Z,99.40
2018-10-19T23:23:59.663Z,99.10
2018-10-19T23:29:21.303Z,99.40
2018-10-19T23:34:43.699Z,99.50
2018-10-19T23:40:05.399Z,99.40
2018-10-19T23:45:27.465Z,99.30
2018-10-19T23:50:49.382Z,99.20
2018-10-19T23:56:11.646Z,99.00
